Time;durP1;ratioP1;P1;durP2;ratioP2;P2;SDS_P1;SDS_P2;PMS_P1;PMS_P2;Temp;Humidity;BMP_temperature;BMP_pressure;BME280_temperature;BME280_humidity;BME280_pressure;Samples;Min_cycle;Max_cycle;Signal;HPM_P1;HPM_P2
2020/12/28 00:00:11;;;;;;;1.10;0.80;;;4.30;99.90;;;;;;5055600;28;20723;-74
2020/12/28 00:02:37;;;;;;;2.67;2.10;;;4.30;99.90;;;;;;5054922;28;20844;-74
2020/12/28 00:05:09;;;;;;;1.77;1.00;;;4.30;99.90;;;;;;5070020;28;20437;-74
2020/12/28 00:07:35;;;;;;;1.30;1.00;;;4.30;99.90;;;;;;5052646;28;20233;-74
2020/12/28 00:10:02;;;;;;;1.53;1.30;;;4.30;99.90;;;;;;5070242;28;20437;-74
2020/12/28 00:12:29;;;;;;;1.17;0.93;;;4.30;99.90;;;;;;5060018;28;20445;-74
2020/12/28 00:14:56;;;;;;;1.47;1.20;;;4.30;99.90;;;;;;5068883;28;20438;-74
2020/12/28 00:17:22;;;;;;;1.33;1.10;;;4.30;99.90;;;;;;5067441;28;20526;-74
2020/12/28 00:19:48;;;;;;;1.10;0.93;;;4.30;99.90;;;;;;5072043;28;20515;-74
2020/12/28 00:22:13;;;;;;;1.13;0.90;;;4.30;99.90;;;;;;5055047;28;21085;-74
2020/12/28 00:24:39;;;;;;;4.00;1.10;;;4.20;99.90;;;;;;5068548;28;20195;-74
2020/12/28 00:27:05;;;;;;;1.40;1.30;;;4.20;99.90;;;;;;5053856;28;20199;-74
2020/12/28 00:29:30;;;;;;;1.30;1.20;;;4.30;99.90;;;;;;5069432;28;20539;-74
2020/12/28 00:31:57;;;;;;;1.23;1.13;;;4.20;99.90;;;;;;5069794;28;20176;-74
2020/12/28 00:34:22;;;;;;;1.87;1.00;;;4.20;99.90;;;;;;5069023;28;20244;-75
2020/12/28 00:36:48;;;;;;;1.30;1.20;;;4.20;99.90;;;;;;5069754;28;20792;-74
2020/12/28 00:39:13;;;;;;;1.20;1.00;;;4.20;99.90;;;;;;5078063;28;20183;-74
2020/12/28 00:41:39;;;;;;;1.70;1.30;;;4.20;99.90;;;;;;5052230;28;20221;-74
2020/12/28 00:44:04;;;;;;;1.60;1.40;;;4.20;99.90;;;;;;5069651;28;20546;-74
2020/12/28 00:46:30;;;;;;;1.30;1.20;;;4.20;99.90;;;;;;5069371;28;20269;-74
2020/12/28 00:48:55;;;;;;;1.43;1.13;;;4.20;99.90;;;;;;5058928;28;20197;-74
2020/12/28 00:51:21;;;;;;;1.60;1.40;;;4.20;99.90;;;;;;5052482;28;20194;-75
2020/12/28 00:53:47;;;;;;;1.83;1.10;;;4.20;99.90;;;;;;5073277;28;20191;-74
2020/12/28 00:56:13;;;;;;;1.87;1.20;;;4.30;99.90;;;;;;5070771;28;20583;-74
2020/12/28 00:58:38;;;;;;;1.43;1.30;;;4.30;99.90;;;;;;5051367;28;20184;-74
2020/12/28 01:01:05;;;;;;;1.10;1.00;;;4.30;99.90;;;;;;5068678;28;20496;-74
2020/12/28 01:03:31;;;;;;;1.40;1.30;;;4.30;99.90;;;;;;5067898;28;20588;-74
2020/12/28 01:05:56;;;;;;;1.60;1.50;;;4.30;99.90;;;;;;5069179;28;20978;-74
2020/12/28 01:08:22;;;;;;;1.50;1.40;;;4.30;99.90;;;;;;5067940;28;20187;-74
2020/12/28 01:10:48;;;;;;;1.30;1.20;;;4.30;99.90;;;;;;5051815;28;20653;-74
2020/12/28 01:13:14;;;;;;;1.33;1.23;;;4.40;99.90;;;;;;5076070;28;20592;-74
2020/12/28 01:15:41;;;;;;;2.83;1.30;;;4.30;99.90;;;;;;5050936;28;20195;-74
2020/12/28 01:18:06;;;;;;;1.33;1.23;;;4.40;99.90;;;;;;5055410;28;20429;-74
2020/12/28 01:20:32;;;;;;;1.00;0.90;;;4.40;99.90;;;;;;5074987;28;20970;-74
2020/12/28 01:22:57;;;;;;;1.57;1.00;;;4.40;99.90;;;;;;5069280;28;20199;-74
2020/12/28 01:25:23;;;;;;;1.83;1.20;;;4.40;99.90;;;;;;5058350;28;20529;-74
2020/12/28 01:27:49;;;;;;;1.40;1.00;;;4.40;99.90;;;;;;5075402;28;20179;-74
2020/12/28 01:30:15;;;;;;;0.87;0.80;;;4.40;99.90;;;;;;5069637;28;20241;-74
2020/12/28 01:32:40;;;;;;;1.37;0.93;;;4.40;99.90;;;;;;5069251;28;20461;-74
2020/12/28 01:35:06;;;;;;;1.23;1.13;;;4.40;99.90;;;;;;5069379;28;20219;-75
2020/12/28 01:37:31;;;;;;;1.30;0.90;;;4.40;99.90;;;;;;5050346;28;20198;-74
2020/12/28 01:39:57;;;;;;;1.10;1.00;;;4.40;99.90;;;;;;5068410;28;20176;-74
2020/12/28 01:42:22;;;;;;;1.37;1.13;;;4.40;99.90;;;;;;5071228;28;20274;-74
2020/12/28 01:44:48;;;;;;;1.30;1.20;;;4.40;99.90;;;;;;5068734;28;20175;-74
2020/12/28 01:47:13;;;;;;;1.07;0.97;;;4.50;99.90;;;;;;5050602;28;20186;-74
2020/12/28 01:49:40;;;;;;;1.10;1.00;;;4.40;99.90;;;;;;5068654;28;20187;-74
2020/12/28 01:52:06;;;;;;;1.80;1.43;;;4.50;99.90;;;;;;5050143;28;20422;-74
2020/12/28 01:54:32;;;;;;;1.30;1.13;;;4.50;99.90;;;;;;5069384;28;20810;-74
2020/12/28 01:56:58;;;;;;;1.07;0.93;;;4.50;99.90;;;;;;5070192;28;20437;-75
2020/12/28 01:59:24;;;;;;;1.77;1.33;;;4.50;99.90;;;;;;5068886;28;20446;-74
2020/12/28 02:01:54;;;;;;;0.90;0.90;;;4.50;99.90;;;;;;5072502;28;20555;-74
2020/12/28 02:04:21;;;;;;;1.50;1.10;;;4.50;99.90;;;;;;5067250;28;21019;-74
2020/12/28 02:06:50;;;;;;;1.10;1.00;;;4.50;99.90;;;;;;5068181;28;20464;-74
2020/12/28 02:09:16;;;;;;;1.23;1.13;;;4.50;99.90;;;;;;5069588;28;20437;-74
2020/12/28 02:11:42;;;;;;;1.93;1.30;;;4.50;99.90;;;;;;5072208;28;20490;-74
2020/12/28 02:14:07;;;;;;;1.80;1.07;;;4.50;99.90;;;;;;5068831;28;20234;-74
2020/12/28 02:16:33;;;;;;;1.73;1.00;;;4.60;99.90;;;;;;5071994;28;20191;-74
2020/12/28 02:18:59;;;;;;;0.83;0.80;;;4.60;99.90;;;;;;5075602;28;20188;-74
2020/12/28 02:21:26;;;;;;;1.60;1.00;;;4.60;99.90;;;;;;5053759;28;20495;-74
2020/12/28 02:23:51;;;;;;;1.17;0.80;;;4.50;99.90;;;;;;5074913;28;20446;-74
2020/12/28 02:26:17;;;;;;;1.00;0.83;;;4.50;99.90;;;;;;5073012;28;20434;-74
2020/12/28 02:28:42;;;;;;;1.00;0.70;;;4.50;99.90;;;;;;5075931;28;20187;-74
2020/12/28 02:31:08;;;;;;;1.87;0.93;;;4.50;99.90;;;;;;5070210;28;20542;-74
2020/12/28 02:33:33;;;;;;;2.40;0.80;;;4.50;99.90;;;;;;5074198;28;20299;-74
2020/12/28 02:35:59;;;;;;;1.53;1.00;;;4.50;99.90;;;;;;5053372;28;20711;-74
2020/12/28 02:38:24;;;;;;;0.80;0.80;;;4.60;99.90;;;;;;5073116;28;20713;-74
2020/12/28 02:40:50;;;;;;;0.90;0.70;;;4.60;99.90;;;;;;5074021;28;20672;-74
2020/12/28 02:43:15;;;;;;;1.03;0.93;;;4.60;99.90;;;;;;5057898;28;20187;-74
2020/12/28 02:45:41;;;;;;;1.00;0.90;;;4.60;99.90;;;;;;5056512;28;20279;-74
2020/12/28 02:48:07;;;;;;;0.93;0.93;;;4.60;99.90;;;;;;5073119;28;20188;-74
2020/12/28 02:50:32;;;;;;;1.00;0.90;;;4.60;99.90;;;;;;5072820;28;20183;-74
2020/12/28 02:52:58;;;;;;;1.10;0.80;;;4.60;99.90;;;;;;5054008;28;20266;-74
2020/12/28 02:55:23;;;;;;;2.13;1.10;;;4.60;99.90;;;;;;5071644;28;20182;-74
2020/12/28 02:57:48;;;;;;;1.10;1.00;;;4.60;99.90;;;;;;5053638;28;20179;-74
2020/12/28 03:00:15;;;;;;;1.53;1.10;;;4.60;99.90;;;;;;5071247;28;20732;-74
2020/12/28 03:02:41;;;;;;;0.80;0.80;;;4.60;99.90;;;;;;5070171;28;20544;-74
2020/12/28 03:05:07;;;;;;;1.20;1.10;;;4.60;99.90;;;;;;5078582;28;20437;-74
2020/12/28 03:07:32;;;;;;;0.80;0.80;;;4.60;99.90;;;;;;5073164;28;20449;-74
2020/12/28 03:09:59;;;;;;;0.90;0.80;;;4.60;99.90;;;;;;5075550;28;20516;-74
2020/12/28 03:12:25;;;;;;;1.10;0.80;;;4.50;99.90;;;;;;5082469;28;20191;-74
2020/12/28 03:14:50;;;;;;;0.90;0.90;;;4.50;99.90;;;;;;5074303;28;20441;-74
2020/12/28 03:17:16;;;;;;;1.47;0.70;;;4.50;99.90;;;;;;5071452;28;20187;-74
2020/12/28 03:19:41;;;;;;;0.90;0.80;;;4.60;99.90;;;;;;5074181;28;20710;-74
2020/12/28 03:22:07;;;;;;;0.80;0.70;;;4.60;99.90;;;;;;5071636;28;20215;-74
2020/12/28 03:24:33;;;;;;;0.90;0.90;;;4.60;99.90;;;;;;5078281;28;20263;-74
2020/12/28 03:27:02;;;;;;;1.00;0.80;;;4.60;99.90;;;;;;5070022;28;20187;-74
2020/12/28 03:29:31;;;;;;;1.20;1.07;;;4.60;99.90;;;;;;5071251;28;20183;-74
2020/12/28 03:31:58;;;;;;;1.00;0.90;;;4.50;99.90;;;;;;5071193;28;20433;-74
2020/12/28 03:34:23;;;;;;;0.90;0.87;;;4.50;99.90;;;;;;5053397;28;20429;-74
2020/12/28 03:36:49;;;;;;;0.90;0.70;;;4.60;99.90;;;;;;5058595;28;20957;-74
2020/12/28 03:39:15;;;;;;;1.20;1.10;;;4.50;99.90;;;;;;5071177;28;20545;-74
2020/12/28 03:41:41;;;;;;;1.20;1.10;;;4.50;99.90;;;;;;5069581;28;20461;-74
2020/12/28 03:44:07;;;;;;;2.33;1.30;;;4.50;99.90;;;;;;5070620;28;20187;-74
2020/12/28 03:46:32;;;;;;;1.03;0.93;;;4.50;99.90;;;;;;5069486;28;20182;-74
2020/12/28 03:48:58;;;;;;;1.33;1.23;;;4.50;99.90;;;;;;5055560;28;20434;-74
2020/12/28 03:51:23;;;;;;;1.10;1.00;;;4.50;99.90;;;;;;5071413;28;20267;-74
2020/12/28 03:53:49;;;;;;;2.57;1.10;;;4.50;99.90;;;;;;5073446;28;20194;-74
2020/12/28 03:56:14;;;;;;;1.10;1.00;;;4.50;99.90;;;;;;5072535;28;20556;-74
2020/12/28 03:58:40;;;;;;;1.07;0.97;;;4.50;99.90;;;;;;5071608;28;20179;-73
2020/12/28 04:01:06;;;;;;;1.27;1.17;;;4.50;99.90;;;;;;5070353;28;20199;-75
2020/12/28 04:03:31;;;;;;;1.03;0.90;;;4.60;99.90;;;;;;5071296;28;20226;-74
2020/12/28 04:06:01;;;;;;;1.03;0.93;;;4.60;99.90;;;;;;5070674;28;20438;-75
2020/12/28 04:08:26;;;;;;;1.00;0.90;;;4.50;99.90;;;;;;5070738;28;20195;-75
2020/12/28 04:10:52;;;;;;;1.20;1.10;;;4.60;99.90;;;;;;5071475;28;20436;-74
2020/12/28 04:13:17;;;;;;;1.00;1.00;;;4.50;99.90;;;;;;5056303;28;20219;-74
2020/12/28 04:15:43;;;;;;;1.40;1.13;;;4.50;99.90;;;;;;5070776;28;20183;-74
2020/12/28 04:18:08;;;;;;;1.47;0.93;;;4.40;99.90;;;;;;5073119;28;20199;-74
2020/12/28 04:20:34;;;;;;;1.13;1.03;;;4.40;99.90;;;;;;5070725;28;20238;-75
2020/12/28 04:23:00;;;;;;;0.93;0.93;;;4.40;99.90;;;;;;5072558;28;20522;-75
2020/12/28 04:25:25;;;;;;;0.83;0.83;;;4.30;99.90;;;;;;5070020;28;20188;-74
2020/12/28 04:27:51;;;;;;;1.10;1.00;;;4.30;99.90;;;;;;5054130;28;20198;-74
2020/12/28 04:30:16;;;;;;;1.00;0.90;;;4.30;99.90;;;;;;5070605;28;20202;-74
2020/12/28 04:32:42;;;;;;;1.00;0.83;;;4.30;99.90;;;;;;5068737;28;20199;-75
2020/12/28 04:35:07;;;;;;;0.87;0.70;;;4.30;99.90;;;;;;5052858;28;20532;-75
2020/12/28 04:37:33;;;;;;;1.13;0.93;;;4.30;99.90;;;;;;5068249;28;20195;-74
2020/12/28 04:39:59;;;;;;;3.43;1.33;;;4.30;99.90;;;;;;5069851;28;20589;-74
2020/12/28 04:42:26;;;;;;;1.63;1.27;;;4.30;99.90;;;;;;5071990;28;20234;-74
2020/12/28 04:44:53;;;;;;;1.23;1.00;;;4.30;99.90;;;;;;5070309;28;21194;-75
2020/12/28 04:47:18;;;;;;;1.17;1.03;;;4.30;99.90;;;;;;5071337;28;20460;-74
2020/12/28 04:49:46;;;;;;;0.90;0.90;;;4.30;99.90;;;;;;5061549;28;20434;-75
2020/12/28 04:52:15;;;;;;;1.07;0.97;;;4.30;99.90;;;;;;5069668;28;22694;-74
2020/12/28 04:54:42;;;;;;;1.10;0.90;;;4.30;99.90;;;;;;5052590;28;20448;-74
2020/12/28 04:57:10;;;;;;;1.47;1.27;;;4.40;99.90;;;;;;5072176;28;20454;-75
2020/12/28 04:59:36;;;;;;;1.73;1.43;;;4.40;99.90;;;;;;5069278;28;20468;-74
2020/12/28 05:02:02;;;;;;;1.50;1.20;;;4.40;99.90;;;;;;5069354;28;20469;-74
2020/12/28 05:04:27;;;;;;;1.60;1.50;;;4.40;99.90;;;;;;5069297;28;20187;-74
2020/12/28 05:06:57;;;;;;;1.40;1.20;;;4.40;99.90;;;;;;5053272;28;20771;-74
2020/12/28 05:09:24;;;;;;;1.60;1.30;;;4.40;99.90;;;;;;5069029;28;20187;-75
2020/12/28 05:11:58;;;;;;;1.40;1.30;;;4.50;99.90;;;;;;5077315;28;20498;-74
2020/12/28 05:14:25;;;;;;;1.33;1.20;;;4.50;99.90;;;;;;5070439;28;20446;-74
2020/12/28 05:17:05;;;;;;;2.40;1.47;;;4.40;99.90;;;;;;5051477;28;20772;-74
2020/12/28 05:19:30;;;;;;;3.20;2.20;;;4.40;99.90;;;;;;5080625;28;20888;-74
2020/12/28 05:21:58;;;;;;;2.73;2.30;;;4.40;99.90;;;;;;5055591;28;20460;-74
2020/12/28 05:24:24;;;;;;;2.40;2.20;;;4.40;99.90;;;;;;5068877;28;20195;-74
2020/12/28 05:26:50;;;;;;;3.77;3.47;;;4.40;99.90;;;;;;5068713;28;20446;-75
2020/12/28 05:29:20;;;;;;;2.93;2.73;;;4.40;99.90;;;;;;5069577;28;20444;-74
2020/12/28 05:31:48;;;;;;;3.43;3.13;;;4.50;99.90;;;;;;5052356;28;20467;-75
2020/12/28 05:34:16;;;;;;;3.33;3.03;;;4.50;99.90;;;;;;5069349;28;20441;-74
2020/12/28 05:36:44;;;;;;;2.70;2.50;;;4.50;99.90;;;;;;5069707;28;20473;-74
2020/12/28 05:39:14;;;;;;;3.07;2.87;;;4.50;99.90;;;;;;5071597;28;20455;-74
2020/12/28 05:41:40;;;;;;;2.77;2.57;;;4.50;99.90;;;;;;5070302;28;20466;-74
2020/12/28 05:44:12;;;;;;;1.97;1.87;;;4.50;99.90;;;;;;5069499;28;20479;-75
2020/12/28 05:46:38;;;;;;;2.90;2.70;;;4.50;99.90;;;;;;5052773;28;20222;-75
2020/12/28 05:49:07;;;;;;;2.00;1.80;;;4.50;99.90;;;;;;5077133;28;21245;-75
2020/12/28 05:51:35;;;;;;;2.53;1.80;;;4.50;99.90;;;;;;5073133;28;20542;-74
2020/12/28 05:54:10;;;;;;;2.03;1.77;;;4.50;99.90;;;;;;5073001;28;20946;-74
2020/12/28 05:56:41;;;;;;;2.00;1.80;;;4.60;99.90;;;;;;5073076;28;20520;-74
2020/12/28 05:59:09;;;;;;;1.80;1.70;;;4.50;99.90;;;;;;5055487;28;20438;-74
2020/12/28 06:01:38;;;;;;;1.73;1.63;;;4.50;99.90;;;;;;5074680;28;20827;-74
2020/12/28 06:04:07;;;;;;;2.73;1.80;;;4.50;99.90;;;;;;5055003;28;20483;-74
2020/12/28 06:06:33;;;;;;;3.73;1.90;;;4.60;99.90;;;;;;5056314;28;20445;-74
2020/12/28 06:09:00;;;;;;;2.07;1.90;;;4.60;99.90;;;;;;5071729;28;20444;-75
2020/12/28 06:11:26;;;;;;;1.80;1.70;;;4.60;99.90;;;;;;5085940;28;20186;-74
2020/12/28 06:13:52;;;;;;;2.43;1.60;;;4.60;99.90;;;;;;5072901;28;20747;-75
2020/12/28 06:16:24;;;;;;;1.83;1.73;;;4.60;99.90;;;;;;5056354;28;20445;-75
2020/12/28 06:18:56;;;;;;;1.43;1.30;;;4.60;99.90;;;;;;5075944;28;20736;-75
2020/12/28 06:21:33;;;;;;;1.90;1.77;;;4.60;99.90;;;;;;5072596;28;20993;-75
2020/12/28 06:23:59;;;;;;;2.17;1.50;;;4.60;99.90;;;;;;5072068;28;20480;-74
2020/12/28 06:26:24;;;;;;;2.47;1.60;;;4.60;99.90;;;;;;5053026;28;20612;-74
2020/12/28 06:28:50;;;;;;;1.93;1.30;;;4.60;99.90;;;;;;5074120;28;20180;-74
2020/12/28 06:31:15;;;;;;;1.60;1.50;;;4.60;99.90;;;;;;5073866;28;20188;-74
2020/12/28 06:33:49;;;;;;;1.77;1.53;;;4.60;99.90;;;;;;5073968;28;20187;-75
2020/12/28 06:36:15;;;;;;;1.77;1.60;;;4.70;99.90;;;;;;5071578;28;20214;-74
2020/12/28 06:38:41;;;;;;;1.50;1.40;;;4.70;99.90;;;;;;5075669;28;20433;-75
2020/12/28 06:41:07;;;;;;;1.90;1.70;;;4.70;99.90;;;;;;5071202;28;20433;-75
2020/12/28 06:43:40;;;;;;;2.20;1.80;;;4.70;99.90;;;;;;5075599;28;20266;-74
2020/12/28 06:46:05;;;;;;;1.57;1.47;;;4.70;99.90;;;;;;5073202;28;20429;-74
2020/12/28 06:48:31;;;;;;;1.90;1.73;;;4.70;99.90;;;;;;5064163;28;20441;-75
2020/12/28 06:51:08;;;;;;;2.13;1.93;;;4.70;99.90;;;;;;5075413;28;20194;-75
2020/12/28 06:53:34;;;;;;;3.60;1.60;;;4.70;99.90;;;;;;5072506;28;20287;-75
2020/12/28 06:56:07;;;;;;;1.70;1.60;;;4.70;99.90;;;;;;5074430;28;20438;-74
2020/12/28 06:58:33;;;;;;;1.40;1.30;;;4.70;99.90;;;;;;5072953;28;20180;-74
2020/12/28 07:00:58;;;;;;;4.73;1.40;;;4.70;99.90;;;;;;5074679;28;20992;-74
2020/12/28 07:03:25;;;;;;;1.40;1.30;;;4.70;99.90;;;;;;5071801;28;20195;-75
2020/12/28 07:06:00;;;;;;;1.30;1.20;;;4.70;99.90;;;;;;5072559;28;20633;-74
2020/12/28 07:08:27;;;;;;;0.93;0.90;;;4.60;99.90;;;;;;5053388;28;20426;-74
2020/12/28 07:10:57;;;;;;;1.97;1.47;;;4.60;99.90;;;;;;5072202;28;20429;-74
2020/12/28 07:13:22;;;;;;;2.20;1.10;;;4.60;99.90;;;;;;5072742;28;20849;-75
2020/12/28 07:15:48;;;;;;;1.47;1.20;;;4.60;99.90;;;;;;5071524;28;20460;-74
2020/12/28 07:18:13;;;;;;;2.00;1.30;;;4.60;99.90;;;;;;5074922;28;20285;-74
2020/12/28 07:20:39;;;;;;;1.10;0.90;;;4.70;99.90;;;;;;5055185;28;20233;-74
2020/12/28 07:23:04;;;;;;;1.50;1.23;;;4.70;99.90;;;;;;5075153;28;20732;-74
2020/12/28 07:25:30;;;;;;;1.43;1.20;;;4.70;99.90;;;;;;5072361;28;20578;-74
2020/12/28 07:27:57;;;;;;;1.40;1.23;;;4.70;99.90;;;;;;5073226;28;20271;-74
2020/12/28 07:30:23;;;;;;;2.30;1.07;;;4.80;99.90;;;;;;5069478;28;20218;-74
2020/12/28 07:32:56;;;;;;;1.10;0.90;;;4.80;99.90;;;;;;5071744;28;20454;-75
2020/12/28 07:35:22;;;;;;;2.00;1.20;;;4.70;99.90;;;;;;5070949;28;20445;-75
2020/12/28 07:37:48;;;;;;;1.10;0.93;;;4.70;99.90;;;;;;5071595;28;20438;-75
2020/12/28 07:40:14;;;;;;;1.80;1.37;;;4.70;99.90;;;;;;5079104;28;20571;-74
2020/12/28 07:42:40;;;;;;;1.53;1.43;;;4.70;99.90;;;;;;5065870;28;20480;-75
2020/12/28 07:45:08;;;;;;;1.60;1.13;;;4.60;99.90;;;;;;5052579;28;20207;-74
2020/12/28 07:47:44;;;;;;;6.30;1.20;;;4.70;99.90;;;;;;5074384;28;20441;-75
2020/12/28 07:50:12;;;;;;;1.80;1.40;;;4.70;99.90;;;;;;5056157;28;20440;-74
2020/12/28 07:52:54;;;;;;;2.00;1.20;;;4.70;99.90;;;;;;5070293;28;20438;-74
2020/12/28 07:55:21;;;;;;;1.60;1.00;;;4.70;99.90;;;;;;5071271;28;20441;-75
2020/12/28 07:57:55;;;;;;;1.17;0.83;;;4.70;99.90;;;;;;5054253;28;20429;-74
2020/12/28 08:00:26;;;;;;;1.80;1.00;;;4.70;99.90;;;;;;5054718;28;20443;-74
2020/12/28 08:03:18;;;;;;;1.30;1.00;;;4.70;99.90;;;;;;5059636;28;20466;-74
2020/12/28 08:05:44;;;;;;;1.20;1.10;;;4.60;99.90;;;;;;5070669;28;20441;-75
2020/12/28 08:08:23;;;;;;;0.97;0.90;;;4.60;99.90;;;;;;5070296;28;20529;-75
2020/12/28 08:10:58;;;;;;;1.60;1.10;;;4.50;99.90;;;;;;5072796;28;20429;-75
2020/12/28 08:13:31;;;;;;;1.43;1.00;;;4.50;99.90;;;;;;5051812;28;20512;-74
2020/12/28 08:16:16;;;;;;;0.93;0.90;;;4.40;99.90;;;;;;5074501;28;20487;-75
2020/12/28 08:18:45;;;;;;;0.90;0.77;;;4.30;99.90;;;;;;5073228;28;20450;-75
2020/12/28 08:21:11;;;;;;;1.90;1.03;;;4.20;99.90;;;;;;5069628;28;20477;-74
2020/12/28 08:23:36;;;;;;;1.50;1.03;;;4.20;99.90;;;;;;5071486;28;20484;-74
2020/12/28 08:26:02;;;;;;;3.37;2.83;;;4.10;99.90;;;;;;5069063;28;20436;-74
2020/12/28 08:28:28;;;;;;;2.57;1.10;;;4.10;99.90;;;;;;5051760;28;20196;-74
2020/12/28 08:30:53;;;;;;;1.63;1.10;;;4.00;99.90;;;;;;5071010;28;20226;-75
2020/12/28 08:33:19;;;;;;;1.30;1.10;;;4.00;99.90;;;;;;5070563;28;20214;-75
2020/12/28 08:35:51;;;;;;;2.90;2.13;;;4.00;99.90;;;;;;5071110;28;20692;-75
2020/12/28 08:38:29;;;;;;;1.47;1.07;;;3.90;99.90;;;;;;5069972;28;20191;-75
2020/12/28 08:40:56;;;;;;;2.70;1.20;;;3.90;99.90;;;;;;5080760;28;20425;-75
2020/12/28 08:43:21;;;;;;;2.47;1.03;;;3.90;99.90;;;;;;5054767;28;20808;-74
2020/12/28 08:45:47;;;;;;;1.47;1.10;;;3.90;99.90;;;;;;5059785;28;20429;-74
2020/12/28 08:48:20;;;;;;;3.03;1.87;;;3.90;99.90;;;;;;5059213;28;20211;-74
2020/12/28 08:50:46;;;;;;;1.23;1.10;;;3.80;99.90;;;;;;5069892;28;20584;-75
2020/12/28 08:53:11;;;;;;;4.37;1.50;;;3.80;99.90;;;;;;5069795;28;20437;-74
2020/12/28 08:55:37;;;;;;;1.57;1.47;;;3.80;99.90;;;;;;5074053;28;20238;-74
2020/12/28 08:58:02;;;;;;;1.50;1.20;;;3.80;99.90;;;;;;5070592;28;20520;-74
2020/12/28 09:00:28;;;;;;;3.17;1.47;;;3.90;99.90;;;;;;5078037;28;20579;-75
2020/12/28 09:02:55;;;;;;;1.50;1.40;;;3.80;99.90;;;;;;5053997;28;20203;-74
2020/12/28 09:05:22;;;;;;;2.63;1.70;;;3.90;99.90;;;;;;5069150;28;20191;-74
2020/12/28 09:07:48;;;;;;;1.50;1.30;;;3.90;99.90;;;;;;5069445;28;20471;-75
2020/12/28 09:10:15;;;;;;;1.63;1.43;;;3.90;99.90;;;;;;5051200;28;20487;-75
2020/12/28 09:12:41;;;;;;;2.60;1.50;;;3.80;99.90;;;;;;5056806;28;20191;-74
2020/12/28 09:15:07;;;;;;;2.57;1.60;;;3.80;99.90;;;;;;5050771;28;20937;-74
2020/12/28 09:17:33;;;;;;;1.00;0.90;;;3.80;99.90;;;;;;5070366;28;20955;-74
2020/12/28 09:19:58;;;;;;;2.17;1.50;;;3.80;99.90;;;;;;5051091;28;20978;-74
2020/12/28 09:22:24;;;;;;;5.70;1.77;;;3.80;99.90;;;;;;5069029;28;20214;-74
2020/12/28 09:24:49;;;;;;;2.17;1.10;;;3.90;99.90;;;;;;5068263;28;20184;-74
2020/12/28 09:27:15;;;;;;;3.50;1.60;;;3.80;99.90;;;;;;5057613;28;20189;-75
2020/12/28 09:29:40;;;;;;;2.70;1.70;;;3.90;99.90;;;;;;5070270;28;20607;-74
2020/12/28 09:32:06;;;;;;;1.40;1.27;;;3.90;99.90;;;;;;5070198;28;20180;-74
2020/12/28 09:34:32;;;;;;;2.37;1.30;;;3.90;99.90;;;;;;5069288;28;20270;-74
2020/12/28 09:37:01;;;;;;;1.23;1.10;;;3.90;99.90;;;;;;5070449;28;20187;-74
2020/12/28 09:39:27;;;;;;;1.40;1.30;;;3.90;99.90;;;;;;5075315;28;20194;-75
2020/12/28 09:41:53;;;;;;;3.23;1.63;;;3.90;99.90;;;;;;5071337;28;20481;-74
2020/12/28 09:44:19;;;;;;;2.70;1.33;;;3.90;99.90;;;;;;5053823;28;20461;-74
2020/12/28 09:46:44;;;;;;;2.47;1.50;;;3.90;99.90;;;;;;5068733;28;20186;-75
2020/12/28 09:49:10;;;;;;;2.03;1.50;;;4.00;99.90;;;;;;5075764;28;20490;-74
2020/12/28 09:51:35;;;;;;;2.50;1.90;;;4.00;99.90;;;;;;5069916;28;20179;-75
2020/12/28 09:54:01;;;;;;;2.53;1.83;;;4.00;99.90;;;;;;5073927;28;20219;-74
2020/12/28 09:56:27;;;;;;;9.17;7.10;;;4.00;99.90;;;;;;5069524;28;20261;-75
2020/12/28 09:58:52;;;;;;;2.40;2.20;;;4.00;99.90;;;;;;5054661;28;20207;-74
2020/12/28 10:01:18;;;;;;;4.93;3.00;;;4.00;99.90;;;;;;5069134;28;20473;-74
2020/12/28 10:03:43;;;;;;;3.67;3.27;;;4.00;99.90;;;;;;5068875;28;20183;-74
2020/12/28 10:06:31;;;;;;;5.07;4.20;;;4.00;99.90;;;;;;5069225;28;20259;-74
2020/12/28 10:08:57;;;;;;;3.50;2.20;;;4.00;99.90;;;;;;5052953;28;20223;-74
2020/12/28 10:11:22;;;;;;;2.63;2.03;;;4.00;99.90;;;;;;5068231;28;20448;-74
2020/12/28 10:13:48;;;;;;;1.87;1.40;;;4.00;99.90;;;;;;5068763;28;20430;-75
2020/12/28 10:16:19;;;;;;;1.67;1.27;;;4.00;99.90;;;;;;5069598;28;20202;-74
2020/12/28 10:18:44;;;;;;;3.67;1.47;;;4.00;99.90;;;;;;5072670;28;20656;-74
2020/12/28 10:21:10;;;;;;;2.10;1.50;;;4.10;99.90;;;;;;5071049;28;20532;-75
2020/12/28 10:23:36;;;;;;;1.73;1.40;;;4.10;99.90;;;;;;5053456;28;20230;-74
2020/12/28 10:26:04;;;;;;;1.87;1.27;;;4.20;99.90;;;;;;5070189;28;20187;-74
2020/12/28 10:28:30;;;;;;;2.17;1.40;;;4.20;99.90;;;;;;5073729;28;20183;-75
2020/12/28 10:30:55;;;;;;;2.90;1.37;;;4.20;99.90;;;;;;5051737;28;20434;-74
2020/12/28 10:33:21;;;;;;;2.07;1.50;;;4.20;99.90;;;;;;5070428;28;20187;-74
2020/12/28 10:35:46;;;;;;;4.83;1.60;;;4.30;99.90;;;;;;5070438;28;20180;-74
2020/12/28 10:38:12;;;;;;;2.03;1.60;;;4.30;99.90;;;;;;5071505;28;20198;-75
2020/12/28 10:40:38;;;;;;;3.47;1.40;;;4.30;99.90;;;;;;5053653;28;20180;-74
2020/12/28 10:43:03;;;;;;;3.80;1.20;;;4.30;99.90;;;;;;5076447;28;20210;-74
2020/12/28 10:45:29;;;;;;;2.30;1.30;;;4.30;99.90;;;;;;5072798;28;20460;-74
2020/12/28 10:47:54;;;;;;;1.37;1.27;;;4.40;99.90;;;;;;5076056;28;20186;-74
2020/12/28 10:50:23;;;;;;;3.40;1.70;;;4.40;99.90;;;;;;5058178;28;20210;-75
2020/12/28 10:52:48;;;;;;;9.50;8.27;;;4.50;99.90;;;;;;5079779;28;20266;-75
2020/12/28 10:55:14;;;;;;;2.37;1.50;;;4.60;99.90;;;;;;5071736;28;20923;-75
2020/12/28 10:57:39;;;;;;;1.40;1.30;;;4.70;99.90;;;;;;5073746;28;20754;-75
2020/12/28 11:00:05;;;;;;;1.60;1.30;;;4.70;99.90;;;;;;5071238;28;20559;-75
2020/12/28 11:02:30;;;;;;;2.97;1.80;;;4.80;99.90;;;;;;5082744;28;20668;-74
2020/12/28 11:04:56;;;;;;;1.60;1.40;;;4.90;99.90;;;;;;5072480;28;20210;-74
2020/12/28 11:07:21;;;;;;;1.70;1.50;;;5.00;99.90;;;;;;5072356;28;22085;-74
2020/12/28 11:09:47;;;;;;;3.10;1.43;;;5.10;99.90;;;;;;5077746;28;20871;-75
2020/12/28 11:12:12;;;;;;;1.37;1.27;;;5.10;99.90;;;;;;5078352;28;20199;-74
2020/12/28 11:14:38;;;;;;;1.77;1.37;;;5.10;99.90;;;;;;5070670;28;20187;-74
2020/12/28 11:17:03;;;;;;;1.90;1.33;;;5.20;99.90;;;;;;5078265;28;20230;-74
2020/12/28 11:19:30;;;;;;;1.47;1.07;;;5.20;99.90;;;;;;5058182;28;20544;-75
2020/12/28 11:21:55;;;;;;;2.23;1.50;;;5.20;99.90;;;;;;5052599;28;20241;-74
2020/12/28 11:24:21;;;;;;;2.57;1.40;;;5.20;99.90;;;;;;5071121;28;20477;-74
2020/12/28 11:26:48;;;;;;;1.63;1.07;;;5.20;99.90;;;;;;5073119;28;20206;-74
2020/12/28 11:29:14;;;;;;;6.00;2.97;;;5.20;99.90;;;;;;5072862;28;20261;-75
2020/12/28 11:31:39;;;;;;;4.00;2.73;;;5.30;99.90;;;;;;5073965;28;20497;-75
2020/12/28 11:34:05;;;;;;;1.37;1.27;;;5.30;99.90;;;;;;5076873;28;20348;-74
2020/12/28 11:36:31;;;;;;;1.93;1.00;;;5.30;99.90;;;;;;5071166;28;20179;-75
2020/12/28 11:38:57;;;;;;;2.03;1.83;;;5.30;99.90;;;;;;5077793;28;20577;-74
2020/12/28 11:41:22;;;;;;;2.13;0.93;;;5.30;99.90;;;;;;5075686;28;20488;-74
2020/12/28 11:43:48;;;;;;;1.40;1.17;;;5.40;99.90;;;;;;5070809;28;20220;-74
2020/12/28 11:46:14;;;;;;;3.80;1.63;;;5.40;99.90;;;;;;5053437;28;20251;-75
2020/12/28 11:48:40;;;;;;;1.20;1.00;;;5.40;99.90;;;;;;5072499;28;20183;-75
2020/12/28 11:51:07;;;;;;;1.33;1.00;;;5.50;99.90;;;;;;5061718;28;20429;-74
2020/12/28 11:53:33;;;;;;;6.20;3.97;;;5.50;99.90;;;;;;5061961;28;20448;-74
2020/12/28 11:56:03;;;;;;;2.73;1.80;;;5.50;99.90;;;;;;5070228;28;20423;-75
2020/12/28 11:58:31;;;;;;;5.20;1.17;;;5.50;99.90;;;;;;5073594;28;20764;-75
2020/12/28 12:00:57;;;;;;;1.13;1.03;;;5.60;99.90;;;;;;5076795;28;20441;-75
2020/12/28 12:03:23;;;;;;;3.43;1.30;;;5.70;99.90;;;;;;5073513;28;20504;-74
2020/12/28 12:05:49;;;;;;;2.40;1.30;;;5.80;99.90;;;;;;5052127;28;20445;-75
2020/12/28 12:08:17;;;;;;;2.33;1.60;;;5.90;99.90;;;;;;5080594;28;20800;-74
2020/12/28 12:10:42;;;;;;;1.70;1.40;;;5.90;99.90;;;;;;5071883;28;20187;-74
2020/12/28 12:13:08;;;;;;;1.80;1.67;;;5.80;99.90;;;;;;5076963;28;20492;-74
2020/12/28 12:15:41;;;;;;;2.13;1.30;;;5.80;99.90;;;;;;5071375;28;20183;-74
2020/12/28 12:18:06;;;;;;;4.50;1.80;;;5.70;99.90;;;;;;5073416;28;20187;-74
2020/12/28 12:20:32;;;;;;;1.83;1.53;;;5.60;99.90;;;;;;5070630;28;20809;-74
2020/12/28 12:22:57;;;;;;;3.57;1.37;;;5.50;99.90;;;;;;5069903;28;20211;-74
2020/12/28 12:25:23;;;;;;;2.47;1.70;;;5.40;99.90;;;;;;5053706;28;20211;-74
2020/12/28 12:27:48;;;;;;;2.13;1.43;;;5.40;99.90;;;;;;5060305;28;20176;-74
2020/12/28 12:30:14;;;;;;;5.10;3.93;;;5.30;99.90;;;;;;5053654;28;20215;-75
2020/12/28 12:32:39;;;;;;;2.60;1.73;;;5.30;99.90;;;;;;5071427;28;20188;-74
2020/12/28 12:35:05;;;;;;;3.53;2.00;;;5.30;99.90;;;;;;5064061;28;20482;-74
2020/12/28 12:37:30;;;;;;;2.10;1.90;;;5.20;99.90;;;;;;5072960;28;20268;-74
2020/12/28 12:39:56;;;;;;;2.00;1.73;;;5.20;99.90;;;;;;5051083;28;20554;-74
2020/12/28 12:42:21;;;;;;;1.97;1.77;;;5.20;99.90;;;;;;5060924;28;20476;-74
2020/12/28 12:44:47;;;;;;;2.50;2.13;;;5.20;99.90;;;;;;5071548;28;20606;-74
2020/12/28 12:47:12;;;;;;;2.10;1.60;;;5.20;99.90;;;;;;5054654;28;20187;-75
2020/12/28 12:49:37;;;;;;;2.37;1.93;;;5.20;99.90;;;;;;5059266;28;20183;-74
2020/12/28 12:52:13;;;;;;;1.90;1.80;;;5.20;99.90;;;;;;5070289;28;20672;-75
2020/12/28 12:54:40;;;;;;;2.10;1.67;;;5.20;99.90;;;;;;5070192;28;20215;-74